createdAt,value
2019-04-04T00:01:01.447Z,9.30
2019-04-04T00:05:46.614Z,9.30
2019-04-04T00:10:32.912Z,9.40
2019-04-04T00:15:20.778Z,9.40
2019-04-04T00:20:05.752Z,9.30
2019-04-04T00:24:50.547Z,9.20
2019-04-04T00:29:35.516Z,9.20
2019-04-04T00:34:20.318Z,9.10
2019-04-04T00:39:09.106Z,9.00
2019-04-04T00:43:53.303Z,8.90
2019-04-04T00:48:38.196Z,8.70
2019-04-04T00:53:23.055Z,8.70
2019-04-04T00:58:08.026Z,8.70
2019-04-04T01:02:53.056Z,8.60
2019-04-04T01:07:37.995Z,8.60
2019-04-04T01:12:23.121Z,8.60
2019-04-04T01:17:07.835Z,8.80
2019-04-04T01:21:53.429Z,8.80
2019-04-04T01:26:39.146Z,8.60
2019-04-04T01:31:24.123Z,8.50
2019-04-04T01:36:09.177Z,8.50
2019-04-04T01:40:55.138Z,8.30
2019-04-04T01:45:40.137Z,8.30
2019-04-04T01:50:24.774Z,8.10
2019-04-04T01:55:09.793Z,7.90
2019-04-04T01:59:54.641Z,7.80
2019-04-04T02:04:39.568Z,7.80
2019-04-04T02:09:24.809Z,7.80
2019-04-04T02:14:09.859Z,8.00
2019-04-04T02:18:56.726Z,8.30
2019-04-04T02:23:41.517Z,8.40
2019-04-04T02:28:26.560Z,8.50
2019-04-04T02:33:11.464Z,8.30
2019-04-04T02:37:56.279Z,8.10
2019-04-04T02:42:41.195Z,8.10
2019-04-04T02:47:26.097Z,8.00
2019-04-04T02:52:14.188Z,7.90
2019-04-04T02:56:59.237Z,7.60
2019-04-04T03:01:44.021Z,7.70
2019-04-04T03:06:28.673Z,7.70
2019-04-04T03:11:13.746Z,7.60
2019-04-04T03:15:58.538Z,7.50
2019-04-04T03:20:43.256Z,7.50
2019-04-04T03:25:28.284Z,7.50
2019-04-04T03:30:16.230Z,7.40
2019-04-04T03:34:59.627Z,7.30
2019-04-04T03:39:46.915Z,7.20
2019-04-04T03:44:32.356Z,7.20
2019-04-04T03:49:17.195Z,7.00
2019-04-04T03:54:04.905Z,6.70
2019-04-04T03:58:49.966Z,6.40
2019-04-04T04:03:34.833Z,6.00
2019-04-04T04:08:22.013Z,6.00
2019-04-04T04:13:05.866Z,5.80
2019-04-04T04:17:50.915Z,5.40
2019-04-04T04:22:38.810Z,5.00
2019-04-04T04:27:23.880Z,4.80
2019-04-04T04:32:08.617Z,4.60
2019-04-04T04:36:53.757Z,4.60
2019-04-04T04:41:38.593Z,4.40
2019-04-04T04:46:23.757Z,4.40
2019-04-04T04:51:11.517Z,4.40
2019-04-04T04:55:59.486Z,4.30
2019-04-04T05:00:42.009Z,4.40
2019-04-04T05:05:31.162Z,4.90
2019-04-04T05:10:15.067Z,5.30
2019-04-04T05:15:02.179Z,5.50
2019-04-04T05:19:50.055Z,5.70
2019-04-04T05:24:37.798Z,5.80
2019-04-04T05:29:23.976Z,5.90
2019-04-04T05:34:09.347Z,6.20
2019-04-04T05:38:54.071Z,6.40
2019-04-04T05:43:42.967Z,6.50
2019-04-04T05:48:29.111Z,6.70
2019-04-04T05:53:14.822Z,7.10
2019-04-04T05:58:00.017Z,7.40
2019-04-04T06:02:45.136Z,7.70
2019-04-04T06:07:30.054Z,7.90
2019-04-04T06:12:19.104Z,8.20
2019-04-04T06:17:05.097Z,8.40
2019-04-04T06:21:51.468Z,8.60
2019-04-04T06:26:38.833Z,8.90
2019-04-04T06:31:30.625Z,9.20
2019-04-04T06:36:18.272Z,9.50
2019-04-04T06:41:06.310Z,9.80
2019-04-04T06:45:51.767Z,10.20
2019-04-04T06:50:38.867Z,10.50
2019-04-04T06:55:23.160Z,10.80
2019-04-04T07:00:13.360Z,11.10
2019-04-04T07:04:58.398Z,11.50
2019-04-04T07:09:43.114Z,11.80
2019-04-04T07:14:29.884Z,12.10
2019-04-04T07:19:15.158Z,12.50
2019-04-04T07:24:02.652Z,12.90
2019-04-04T07:28:49.632Z,13.20
2019-04-04T07:33:33.970Z,13.60
2019-04-04T07:38:18.588Z,13.90
2019-04-04T07:43:03.555Z,14.30
2019-04-04T07:47:48.445Z,14.40
2019-04-04T07:52:33.614Z,14.70
2019-04-04T07:57:19.743Z,15.00
2019-04-04T08:02:07.060Z,15.20
2019-04-04T08:06:51.908Z,15.50
2019-04-04T08:11:36.880Z,15.70
2019-04-04T08:16:21.697Z,15.80
2019-04-04T08:21:06.550Z,16.00
2019-04-04T08:25:51.600Z,16.10
2019-04-04T08:30:36.387Z,16.40
2019-04-04T08:35:21.072Z,16.50
2019-04-04T08:40:06.394Z,16.90
2019-04-04T08:44:51.274Z,17.60
2019-04-04T08:49:36.477Z,18.30
2019-04-04T08:54:21.246Z,18.50
2019-04-04T08:59:06.404Z,18.60
2019-04-04T09:03:51.267Z,18.90
2019-04-04T09:08:36.114Z,18.90
2019-04-04T09:13:20.828Z,19.40
2019-04-04T09:18:06.116Z,19.60
2019-04-04T09:22:50.900Z,20.10
2019-04-04T09:27:36.072Z,20.10
2019-04-04T09:32:20.910Z,19.60
2019-04-04T09:37:08.718Z,19.70
2019-04-04T09:41:52.175Z,20.10
2019-04-04T09:46:36.813Z,20.60
2019-04-04T09:51:21.693Z,20.90
2019-04-04T09:56:06.521Z,20.60
2019-04-04T10:00:51.692Z,21.00
2019-04-04T10:05:37.310Z,21.50
2019-04-04T10:10:22.011Z,21.20
2019-04-04T10:15:07.206Z,21.10
2019-04-04T10:19:51.858Z,21.20
2019-04-04T10:24:37.049Z,21.00
2019-04-04T10:29:21.914Z,21.50
2019-04-04T10:34:10.175Z,21.60
2019-04-04T10:38:54.944Z,21.10
2019-04-04T10:43:40.043Z,21.30
2019-04-04T10:48:24.859Z,21.50
2019-04-04T10:53:09.798Z,21.70
2019-04-04T10:57:54.706Z,21.60
2019-04-04T11:02:39.853Z,22.00
2019-04-04T11:07:24.686Z,22.30
2019-04-04T11:12:09.524Z,22.80
2019-04-04T11:16:54.348Z,22.80
2019-04-04T11:21:39.285Z,22.70
2019-04-04T11:26:24.094Z,22.40
2019-04-04T11:31:09.116Z,22.50
2019-04-04T11:35:54.260Z,22.60
2019-04-04T11:40:39.321Z,22.60
2019-04-04T11:45:24.391Z,22.40
2019-04-04T11:50:09.472Z,22.20
2019-04-04T11:54:58.351Z,22.00
2019-04-04T11:59:43.165Z,22.20
2019-04-04T12:04:31.364Z,21.90
2019-04-04T12:09:16.430Z,22.00
2019-04-04T12:14:01.399Z,22.40
2019-04-04T12:18:46.329Z,22.60
2019-04-04T12:23:31.328Z,22.60
2019-04-04T12:28:16.438Z,22.20
2019-04-04T12:33:01.390Z,22.10
2019-04-04T12:37:46.250Z,21.70
2019-04-04T12:42:33.292Z,22.30
2019-04-04T12:47:17.941Z,22.80
2019-04-04T12:52:03.072Z,22.80
2019-04-04T12:56:48.320Z,22.80
2019-04-04T13:01:33.594Z,23.00
2019-04-04T13:06:18.421Z,22.80
2019-04-04T13:11:03.643Z,22.90
2019-04-04T13:15:48.939Z,23.10
2019-04-04T13:20:33.918Z,23.50
2019-04-04T13:25:18.904Z,23.30
2019-04-04T13:30:07.190Z,23.50
2019-04-04T13:34:59.449Z,23.50
2019-04-04T13:39:41.684Z,23.00
2019-04-04T13:44:27.048Z,23.10
2019-04-04T13:49:11.750Z,23.00
2019-04-04T13:54:36.272Z,23.10
2019-04-04T13:59:21.538Z,23.10
2019-04-04T14:04:06.557Z,23.20
2019-04-04T14:08:51.542Z,22.80
2019-04-04T14:13:48.690Z,22.20
2019-04-04T14:18:39.515Z,22.10
2019-04-04T14:23:21.551Z,22.10
2019-04-04T14:28:08.101Z,22.40
2019-04-04T14:32:53.051Z,22.60
2019-04-04T14:37:54.463Z,22.60
2019-04-04T14:42:40.695Z,22.20
2019-04-04T14:47:25.563Z,22.10
2019-04-04T14:52:10.294Z,22.00
2019-04-04T14:56:55.393Z,21.70
2019-04-04T15:01:40.861Z,22.20
2019-04-04T15:06:25.948Z,22.10
2019-04-04T15:11:23.102Z,21.70
2019-04-04T15:16:16.504Z,21.70
2019-04-04T15:21:01.364Z,21.70
2019-04-04T15:25:46.612Z,21.70
2019-04-04T15:30:34.607Z,21.90
2019-04-04T15:35:22.307Z,22.00
2019-04-04T15:40:07.630Z,22.00
2019-04-04T15:44:53.734Z,21.80
2019-04-04T15:49:39.251Z,21.90
2019-04-04T15:54:24.867Z,21.60
2019-04-04T15:59:10.162Z,21.60
2019-04-04T16:03:55.499Z,21.50
2019-04-04T16:08:43.498Z,21.40
2019-04-04T16:13:28.963Z,21.50
2019-04-04T16:18:14.556Z,21.70
2019-04-04T16:22:59.600Z,21.60
2019-04-04T16:27:44.803Z,21.10
2019-04-04T16:32:30.198Z,20.60
2019-04-04T16:37:15.630Z,20.00
2019-04-04T16:42:02.503Z,19.50
2019-04-04T16:46:50.544Z,19.20
2019-04-04T16:51:35.421Z,19.00
2019-04-04T16:56:20.414Z,18.70
2019-04-04T17:01:05.291Z,18.60
2019-04-04T17:05:50.279Z,18.50
2019-04-04T17:10:35.146Z,18.10
2019-04-04T17:15:19.907Z,17.90
2019-04-04T17:20:05.909Z,17.60
2019-04-04T17:24:50.813Z,17.30
2019-04-04T17:29:40.199Z,17.10
2019-04-04T17:34:25.086Z,17.00
2019-04-04T17:39:10.182Z,16.70
2019-04-04T17:43:55.367Z,16.50
2019-04-04T17:48:40.666Z,16.20
2019-04-04T17:53:25.999Z,15.90
2019-04-04T17:58:11.907Z,15.80
2019-04-04T18:02:57.473Z,15.70
